Time;durP1;ratioP1;P1;durP2;ratioP2;P2;SDS_P1;SDS_P2;PMS_P1;PMS_P2;Temp;Humidity;BMP_temperature;BMP_pressure;BME280_temperature;BME280_humidity;BME280_pressure;Samples;Min_cycle;Max_cycle;Signal;HPM_P1;HPM_P2
2022/05/22 00:01:34;;;;;;;4.83;2.50;;;;;;;;;;5052570;28;20200;-57
2022/05/22 00:04:00;;;;;;;4.40;2.20;;;;;;;;;;5052705;28;20296;-57
2022/05/22 00:06:27;;;;;;;8.37;2.83;;;;;;;;;;5052360;28;20299;-57
2022/05/22 00:08:53;;;;;;;4.10;2.43;;;;;;;;;;5052390;28;20215;-57
2022/05/22 00:11:19;;;;;;;5.43;2.53;;;;;;;;;;5052322;28;20224;-58
2022/05/22 00:13:45;;;;;;;5.83;2.30;;;;;;;;;;5052442;28;20196;-57
2022/05/22 00:18:57;;;;;;;4.37;2.27;;;;;;;;;;5052282;28;20725;-57
2022/05/22 00:21:23;;;;;;;5.53;2.50;;;;;;;;;;5051962;28;20196;-57
2022/05/22 00:23:49;;;;;;;4.70;2.43;;;;;;;;;;5051988;28;20568;-56
2022/05/22 00:26:15;;;;;;;4.93;2.50;;;;;;;;;;5051066;28;20224;-57
2022/05/22 00:28:41;;;;;;;4.17;2.07;;;;;;;;;;5052270;28;20196;-56
2022/05/22 00:31:07;;;;;;;7.80;2.53;;;;;;;;;;5052022;28;20196;-56
2022/05/22 00:33:34;;;;;;;6.67;2.63;;;;;;;;;;5052043;28;20193;-57
2022/05/22 00:36:01;;;;;;;5.97;2.07;;;;;;;;;;5052260;28;20620;-56
2022/05/22 00:38:27;;;;;;;7.17;3.70;;;;;;;;;;5051739;28;20343;-56
2022/05/22 00:40:53;;;;;;;6.07;2.63;;;;;;;;;;5052175;28;20724;-57
2022/05/22 00:43:26;;;;;;;4.23;2.40;;;;;;;;;;5052067;28;20206;-56
2022/05/22 00:45:52;;;;;;;5.47;2.57;;;;;;;;;;5052119;28;20196;-56
2022/05/22 00:48:18;;;;;;;8.97;3.20;;;;;;;;;;5051792;28;20250;-57
2022/05/22 00:50:45;;;;;;;3.90;2.77;;;;;;;;;;5051745;28;20195;-57
2022/05/22 00:53:12;;;;;;;4.27;2.30;;;;;;;;;;5051681;28;20212;-55
2022/05/22 00:55:39;;;;;;;6.47;3.13;;;;;;;;;;5051697;28;20703;-57
2022/05/22 00:58:07;;;;;;;5.83;2.80;;;;;;;;;;5049577;28;20517;-56
2022/05/22 01:00:35;;;;;;;4.20;2.60;;;;;;;;;;5051696;28;20211;-55
2022/05/22 01:05:48;;;;;;;6.43;2.70;;;;;;;;;;5051762;28;20199;-57
2022/05/22 01:08:16;;;;;;;4.27;2.50;;;;;;;;;;5051723;28;20250;-57
2022/05/22 01:10:44;;;;;;;6.40;2.80;;;;;;;;;;5051775;28;20226;-56
2022/05/22 01:13:11;;;;;;;6.20;2.47;;;;;;;;;;5051589;28;20247;-56
2022/05/22 01:15:37;;;;;;;5.03;2.73;;;;;;;;;;5051827;28;20224;-56
2022/05/22 01:18:03;;;;;;;3.97;2.63;;;;;;;;;;5051785;28;20215;-56
2022/05/22 01:20:30;;;;;;;4.53;2.50;;;;;;;;;;5051725;28;20568;-55
2022/05/22 01:22:57;;;;;;;4.57;2.50;;;;;;;;;;5051644;28;20193;-56
2022/05/22 01:25:23;;;;;;;5.27;2.67;;;;;;;;;;5051447;28;20220;-56
2022/05/22 01:27:49;;;;;;;4.47;2.57;;;;;;;;;;5051425;28;20204;-55
2022/05/22 01:30:16;;;;;;;5.27;3.27;;;;;;;;;;5051414;28;20543;-56
2022/05/22 01:32:43;;;;;;;5.43;3.00;;;;;;;;;;5051562;28;20223;-57
2022/05/22 01:35:10;;;;;;;5.87;2.73;;;;;;;;;;5051394;28;20610;-55
2022/05/22 01:37:36;;;;;;;7.67;2.63;;;;;;;;;;5051449;28;20196;-56
2022/05/22 01:40:05;;;;;;;5.87;2.50;;;;;;;;;;5054958;28;20232;-55
2022/05/22 01:42:31;;;;;;;5.10;2.57;;;;;;;;;;5055143;28;20238;-57
2022/05/22 01:44:57;;;;;;;5.30;2.80;;;;;;;;;;5055239;28;20279;-57
2022/05/22 01:47:23;;;;;;;5.60;2.70;;;;;;;;;;5055141;28;20310;-55
2022/05/22 01:49:49;;;;;;;6.50;2.73;;;;;;;;;;5055118;28;20271;-55
2022/05/22 01:52:15;;;;;;;6.60;3.10;;;;;;;;;;5054816;28;20224;-55
2022/05/22 01:54:41;;;;;;;4.17;2.53;;;;;;;;;;5054907;28;20192;-55
2022/05/22 01:57:08;;;;;;;4.73;2.40;;;;;;;;;;5055031;28;20226;-56
2022/05/22 01:59:34;;;;;;;3.00;2.60;;;;;;;;;;5054964;28;20200;-55
2022/05/22 02:02:00;;;;;;;4.87;2.70;;;;;;;;;;5055022;28;20242;-55
2022/05/22 02:04:26;;;;;;;6.37;2.80;;;;;;;;;;5054821;28;20559;-56
2022/05/22 02:09:37;;;;;;;5.40;3.07;;;;;;;;;;5054835;28;20215;-55
2022/05/22 02:12:03;;;;;;;4.20;2.93;;;;;;;;;;5054581;28;20232;-55
2022/05/22 02:14:31;;;;;;;4.77;3.10;;;;;;;;;;5054665;28;20192;-55
2022/05/22 02:16:57;;;;;;;3.50;2.80;;;;;;;;;;5054557;28;20680;-55
2022/05/22 02:19:23;;;;;;;4.23;2.90;;;;;;;;;;5054396;28;20196;-55
2022/05/22 02:21:49;;;;;;;6.93;3.03;;;;;;;;;;5054353;28;20608;-55
2022/05/22 02:24:16;;;;;;;6.33;2.90;;;;;;;;;;5054363;28;20314;-55
2022/05/22 02:26:42;;;;;;;3.00;2.53;;;;;;;;;;5055027;28;20196;-55
2022/05/22 02:29:08;;;;;;;6.67;2.90;;;;;;;;;;5054411;28;20202;-54
2022/05/22 02:31:35;;;;;;;6.23;3.03;;;;;;;;;;5054210;28;20278;-55
2022/05/22 02:34:01;;;;;;;7.13;2.63;;;;;;;;;;5054327;28;20215;-55
2022/05/22 02:36:27;;;;;;;5.63;3.00;;;;;;;;;;5054160;28;20250;-55
2022/05/22 02:38:53;;;;;;;5.73;3.77;;;;;;;;;;5053744;28;20773;-55
2022/05/22 02:41:20;;;;;;;3.47;2.50;;;;;;;;;;5054057;28;20239;-55
2022/05/22 02:43:46;;;;;;;5.03;2.70;;;;;;;;;;5054116;28;20200;-55
2022/05/22 02:46:14;;;;;;;3.77;2.30;;;;;;;;;;5053914;28;20196;-56
2022/05/22 02:48:41;;;;;;;6.33;3.17;;;;;;;;;;5053940;28;20284;-55
2022/05/22 02:51:10;;;;;;;5.23;2.93;;;;;;;;;;5053962;28;20200;-55
2022/05/22 02:53:36;;;;;;;6.00;2.77;;;;;;;;;;5053934;28;20224;-55
2022/05/22 02:56:07;;;;;;;4.03;3.00;;;;;;;;;;5054024;28;20638;-55
2022/05/22 02:58:33;;;;;;;3.80;2.57;;;;;;;;;;5053903;28;20208;-54
2022/05/22 03:00:59;;;;;;;3.80;2.93;;;;;;;;;;5053964;28;20207;-54
2022/05/22 03:03:24;;;;;;;5.07;2.80;;;;;;;;;;5053618;28;20627;-54
2022/05/22 03:08:36;;;;;;;5.90;3.33;;;;;;;;;;5052437;28;20392;-55
2022/05/22 03:11:03;;;;;;;4.88;3.15;;;;;;;;;;5052481;28;20780;-55
2022/05/22 03:13:29;;;;;;;5.43;3.30;;;;;;;;;;5052396;28;20413;-55
2022/05/22 03:15:55;;;;;;;5.45;2.88;;;;;;;;;;5052594;28;20409;-55
2022/05/22 03:18:21;;;;;;;5.77;3.17;;;;;;;;;;5052283;28;20440;-55
2022/05/22 03:20:47;;;;;;;4.60;3.28;;;;;;;;;;5052323;28;20509;-55
2022/05/22 03:23:14;;;;;;;7.05;3.40;;;;;;;;;;5052170;28;20397;-55
2022/05/22 03:25:41;;;;;;;6.28;3.67;;;;;;;;;;5052228;28;20405;-55
2022/05/22 03:28:07;;;;;;;6.00;3.47;;;;;;;;;;5052142;28;20414;-55
2022/05/22 03:30:33;;;;;;;6.97;3.57;;;;;;;;;;5051993;28;20463;-55
2022/05/22 03:32:59;;;;;;;4.18;3.10;;;;;;;;;;5051699;28;20931;-55
2022/05/22 03:35:25;;;;;;;6.43;3.20;;;;;;;;;;5052010;28;20472;-56
2022/05/22 03:37:51;;;;;;;6.33;3.33;;;;;;;;;;5051938;28;20420;-55
2022/05/22 03:40:18;;;;;;;6.65;3.55;;;;;;;;;;5051582;28;20410;-55
2022/05/22 03:42:44;;;;;;;5.63;3.40;;;;;;;;;;5051928;28;20508;-55
2022/05/22 03:45:10;;;;;;;3.95;3.08;;;;;;;;;;5051880;28;20492;-56
2022/05/22 03:47:38;;;;;;;6.73;3.50;;;;;;;;;;5051719;28;20405;-56
2022/05/22 03:50:05;;;;;;;5.78;3.10;;;;;;;;;;5051435;28;20409;-56
2022/05/22 03:52:31;;;;;;;4.93;3.10;;;;;;;;;;5051568;28;20429;-56
2022/05/22 03:54:57;;;;;;;4.85;3.33;;;;;;;;;;5051716;28;20489;-56
2022/05/22 03:57:25;;;;;;;6.22;3.30;;;;;;;;;;5051575;28;20405;-55
2022/05/22 03:59:51;;;;;;;4.50;3.00;;;;;;;;;;5051678;28;20437;-55
2022/05/22 04:02:17;;;;;;;4.75;3.55;;;;;;;;;;5050688;28;20429;-55
2022/05/22 04:04:42;;;;;;;6.20;3.60;;;;;;;;;;5051761;28;20401;-54
2022/05/22 04:07:08;;;;;;;5.80;3.50;;;;;;;;;;5051381;28;20500;-54
2022/05/22 04:09:34;;;;;;;5.05;3.38;;;;;;;;;;5051291;28;20503;-55
2022/05/22 04:12:05;;;;;;;5.43;3.80;;;;;;;;;;5051431;28;20492;-55
2022/05/22 04:14:32;;;;;;;5.47;3.47;;;;;;;;;;5051328;28;20737;-56
2022/05/22 04:16:58;;;;;;;4.35;3.50;;;;;;;;;;5051255;28;20413;-55
2022/05/22 04:19:24;;;;;;;6.88;4.10;;;;;;;;;;5051138;28;20401;-55
2022/05/22 04:21:50;;;;;;;6.28;3.75;;;;;;;;;;5051013;28;20451;-55
2022/05/22 04:27:02;;;;;;;6.68;4.10;;;;;;;;;;5051161;28;20388;-55
2022/05/22 04:29:28;;;;;;;5.35;3.50;;;;;;;;;;5051006;28;20481;-55
2022/05/22 04:31:55;;;;;;;5.72;3.63;;;;;;;;;;5050966;28;20943;-55
2022/05/22 04:34:21;;;;;;;5.65;3.67;;;;;;;;;;5050657;28;20888;-56
2022/05/22 04:36:47;;;;;;;5.85;3.80;;;;;;;;;;5051058;28;20401;-56
2022/05/22 04:39:13;;;;;;;6.75;3.80;;;;;;;;;;5050695;28;20482;-55
2022/05/22 04:41:39;;;;;;;6.57;3.83;;;;;;;;;;5050815;28;20444;-55
2022/05/22 04:44:06;;;;;;;6.47;3.92;;;;;;;;;;5050756;28;20419;-54
2022/05/22 04:46:32;;;;;;;5.32;3.60;;;;;;;;;;5050667;28;20405;-55
2022/05/22 04:48:59;;;;;;;6.45;4.38;;;;;;;;;;5050679;28;20868;-54
2022/05/22 04:51:25;;;;;;;7.20;4.35;;;;;;;;;;5050495;28;20401;-54
2022/05/22 04:53:51;;;;;;;6.88;4.13;;;;;;;;;;5050716;28;20405;-54
2022/05/22 04:56:18;;;;;;;5.53;4.00;;;;;;;;;;5050631;28;20413;-55
2022/05/22 04:58:44;;;;;;;6.40;4.40;;;;;;;;;;5050774;28;20400;-57
2022/05/22 05:01:10;;;;;;;5.93;3.85;;;;;;;;;;5050633;28;20415;-55
2022/05/22 05:03:36;;;;;;;8.77;4.53;;;;;;;;;;5050450;28;20746;-55
2022/05/22 05:06:04;;;;;;;6.88;4.00;;;;;;;;;;5049552;28;20495;-55
2022/05/22 05:08:30;;;;;;;7.53;4.20;;;;;;;;;;5050588;28;20405;-55
2022/05/22 05:10:56;;;;;;;7.90;4.20;;;;;;;;;;5050601;28;20409;-54
2022/05/22 05:13:23;;;;;;;8.38;4.20;;;;;;;;;;5053127;28;20911;-54
2022/05/22 05:15:57;;;;;;;6.15;4.10;;;;;;;;;;5054614;28;20471;-55
2022/05/22 05:18:23;;;;;;;7.10;3.95;;;;;;;;;;5054354;28;20400;-54
2022/05/22 05:20:49;;;;;;;6.55;3.90;;;;;;;;;;5054337;28;20405;-54
2022/05/22 05:23:17;;;;;;;8.47;4.07;;;;;;;;;;5054488;28;20474;-55
2022/05/22 05:25:43;;;;;;;6.57;3.80;;;;;;;;;;5054354;28;20439;-55
2022/05/22 05:28:09;;;;;;;5.50;3.80;;;;;;;;;;5054390;28;20946;-55
2022/05/22 05:30:35;;;;;;;5.27;3.70;;;;;;;;;;5054096;28;20411;-55
2022/05/22 05:33:01;;;;;;;7.07;3.85;;;;;;;;;;5054289;28;20484;-55
2022/05/22 05:35:27;;;;;;;6.07;3.67;;;;;;;;;;5054093;28;20413;-55
2022/05/22 05:37:53;;;;;;;6.57;3.97;;;;;;;;;;5054206;28;20456;-56
2022/05/22 05:40:20;;;;;;;7.10;4.07;;;;;;;;;;5053826;28;20416;-55
2022/05/22 05:42:48;;;;;;;5.63;3.65;;;;;;;;;;5054223;28;20463;-56
2022/05/22 05:45:15;;;;;;;6.53;3.58;;;;;;;;;;5054097;28;20397;-55
2022/05/22 05:47:41;;;;;;;6.47;3.80;;;;;;;;;;5053936;28;20964;-54
2022/05/22 05:50:08;;;;;;;5.93;3.92;;;;;;;;;;5053837;28;20440;-55
2022/05/22 05:52:34;;;;;;;5.70;3.47;;;;;;;;;;5054928;28;20564;-57
2022/05/22 05:55:00;;;;;;;5.07;3.10;;;;;;;;;;5055209;28;20201;-54
2022/05/22 05:57:29;;;;;;;6.40;3.60;;;;;;;;;;5054969;28;20055;-55
2022/05/22 05:59:54;;;;;;;;;;;;;;;;;;5055308;28;20406;-55
2022/05/22 06:02:20;;;;;;;;;;;;;;;;;;5055303;28;19905;-55
2022/05/22 06:04:46;;;;;;;;;;;;;;;;;;5055413;28;19905;-56
2022/05/22 06:07:12;;;;;;;;;;;;;;;;;;5055058;28;19909;-55
2022/05/22 06:09:38;;;;;;;;;;;;;;;;;;5055243;28;19913;-56
2022/05/22 06:12:04;;;;;;;;;;;;;;;;;;5055136;28;20394;-55
2022/05/22 06:14:30;;;;;;;;;;;;;;;;;;5054988;28;20335;-55
2022/05/22 06:16:56;;;;;;;;;;;;;;;;;;5054994;28;19904;-56
2022/05/22 06:22:06;;;;;;;;;;;;;;;;;;5054898;28;19912;-58
2022/05/22 06:24:32;;;;;;;;;;;;;;;;;;5053498;28;20417;-57
2022/05/22 06:26:58;;;;;;;;;;;;;;;;;;5054865;28;20525;-57
2022/05/22 06:29:24;;;;;;;;;;;;;;;;;;5054579;28;20328;-57
2022/05/22 06:31:53;;;;;;;;;;;;;;;;;;5054564;28;19909;-56
2022/05/22 06:34:22;;;;;;;;;;;;;;;;;;5054535;28;19904;-57
2022/05/22 06:36:48;;;;;;;;;;;;;;;;;;5054376;28;19912;-56
2022/05/22 06:41:58;;;;;;;;;;;;;;;;;;5054334;28;19966;-55
2022/05/22 06:44:24;;;;;;;;;;;;;;;;;;5054317;28;20413;-57
2022/05/22 06:46:50;;;;;;;;;;;;;;;;;;5054548;28;19927;-56
2022/05/22 06:49:16;;;;;;;;;;;;;;;;;;5054350;28;19908;-58
2022/05/22 06:51:44;;;;;;;;;;;;;;;;;;5054195;28;19958;-58
2022/05/22 06:54:10;;;;;;;;;;;;;;;;;;5054312;28;19905;-56
2022/05/22 06:56:36;;;;;;;;;;;;;;;;;;5054137;28;19905;-57
2022/05/22 06:59:02;;;;;;;;;;;;;;;;;;5054205;28;19916;-57
2022/05/22 07:01:29;;;;;;;;;;;;;;;;;;5054149;28;19912;-56
2022/05/22 07:03:55;;;;;;;;;;;;;;;;;;5054186;28;20011;-58
2022/05/22 07:06:20;;;;;;;;;;;;;;;;;;5054053;28;20383;-58
2022/05/22 07:08:46;;;;;;;;;;;;;;;;;;5054106;28;19905;-57
2022/05/22 07:13:58;;;;;;;;;;;;;;;;;;5054073;28;20351;-57
2022/05/22 07:16:24;;;;;;;;;;;;;;;;;;5053687;28;19904;-56
2022/05/22 07:18:49;;;;;;;;;;;;;;;;;;5053923;28;19996;-58
2022/05/22 07:21:15;;;;;;;;;;;;;;;;;;5053787;28;19904;-57
2022/05/22 07:23:41;;;;;;;;;;;;;;;;;;5053782;28;19916;-59
2022/05/22 07:26:07;;;;;;;;;;;;;;;;;;5053703;28;20355;-57
2022/05/22 07:28:34;;;;;;;;;;;;;;;;;;5053481;28;20409;-57
2022/05/22 07:31:00;;;;;;;;;;;;;;;;;;5053568;28;19967;-56
2022/05/22 07:33:26;;;;;;;;;;;;;;;;;;5053433;28;20355;-57
2022/05/22 07:35:51;;;;;;;;;;;;;;;;;;5053219;28;20327;-56
2022/05/22 07:38:17;;;;;;;;;;;;;;;;;;5053334;28;20278;-57
2022/05/22 07:40:43;;;;;;;;;;;;;;;;;;5053501;28;19962;-56
2022/05/22 07:43:09;;;;;;;;;;;;;;;;;;5053673;28;19904;-57
2022/05/22 07:45:35;;;;;;;;;;;;;;;;;;5053376;28;19938;-56
2022/05/22 07:48:01;;;;;;;;;;;;;;;;;;5053007;28;19928;-57
2022/05/22 07:50:26;;;;;;;;;;;;;;;;;;5053266;28;19905;-56
2022/05/22 07:52:52;;;;;;;;;;;;;;;;;;5053220;28;19916;-57
2022/05/22 07:55:21;;;;;;;4.23;1.90;;;;;;;;;;5052787;28;20250;-56
2022/05/22 07:57:48;;;;;;;6.63;1.73;;;;;;;;;;5052859;28;20303;-56
2022/05/22 08:00:16;;;;;;;5.93;2.03;;;;;;;;;;5052842;28;20564;-57
2022/05/22 08:02:42;;;;;;;3.43;1.60;;;;;;;;;;5051818;28;20661;-56
2022/05/22 08:05:09;;;;;;;5.13;1.30;;;;;;;;;;5052252;28;20265;-57
2022/05/22 08:07:35;;;;;;;3.17;1.73;;;;;;;;;;5052361;28;20299;-57
2022/05/22 08:10:01;;;;;;;4.63;1.60;;;;;;;;;;5052548;28;20242;-56
2022/05/22 08:12:29;;;;;;;5.53;1.70;;;;;;;;;;5052033;28;20232;-57
2022/05/22 08:14:55;;;;;;;2.77;1.40;;;;;;;;;;5052597;28;20218;-58
2022/05/22 08:17:21;;;;;;;3.30;1.50;;;;;;;;;;5052469;28;20202;-57
2022/05/22 08:19:48;;;;;;;4.23;1.53;;;;;;;;;;5052618;28;20203;-57
2022/05/22 08:22:15;;;;;;;5.87;2.30;;;;;;;;;;5052433;28;20282;-57
2022/05/22 08:24:41;;;;;;;3.37;1.63;;;;;;;;;;5052108;28;20310;-56
2022/05/22 08:27:07;;;;;;;3.33;1.40;;;;;;;;;;5052226;28;20382;-57
2022/05/22 08:29:34;;;;;;;4.53;1.83;;;;;;;;;;5052303;28;20260;-57
2022/05/22 08:32:00;;;;;;;4.07;1.47;;;;;;;;;;5052282;28;20224;-56
2022/05/22 08:34:26;;;;;;;2.67;1.50;;;;;;;;;;5052160;28;20200;-56
2022/05/22 08:36:52;;;;;;;4.63;1.70;;;;;;;;;;5052147;28;20289;-57
2022/05/22 08:39:18;;;;;;;3.23;1.57;;;;;;;;;;5051728;28;20231;-57
2022/05/22 08:41:46;;;;;;;5.00;1.53;;;;;;;;;;5051935;28;20206;-57
2022/05/22 08:44:14;;;;;;;2.13;1.50;;;;;;;;;;5052166;28;20207;-57
2022/05/22 08:46:50;;;;;;;4.20;1.47;;;;;;;;;;5051591;28;20203;-56
2022/05/22 08:49:19;;;;;;;3.00;1.37;;;;;;;;;;5052242;28;20197;-58
2022/05/22 08:51:47;;;;;;;2.23;1.40;;;;;;;;;;5052020;28;20199;-63
2022/05/22 08:54:24;;;;;;;3.17;1.50;;;;;;;;;;5052156;28;20204;-65
2022/05/22 08:59:39;;;;;;;3.57;1.60;;;;;;;;;;5051952;28;20206;-65
2022/05/22 09:02:14;;;;;;;3.50;1.40;;;;;;;;;;5052056;28;20192;-65
2022/05/22 09:04:43;;;;;;;2.83;1.60;;;;;;;;;;5051697;28;20219;-63
2022/05/22 09:07:12;;;;;;;2.57;1.80;;;;;;;;;;5051239;28;20658;-57
2022/05/22 09:09:39;;;;;;;4.00;1.93;;;;;;;;;;5051051;28;20210;-60
2022/05/22 09:12:12;;;;;;;4.37;1.50;;;;;;;;;;5051504;28;20650;-61
2022/05/22 09:14:40;;;;;;;3.13;1.53;;;;;;;;;;5049670;28;20261;-62
2022/05/22 09:17:12;;;;;;;2.47;1.60;;;;;;;;;;5047358;28;20205;-61
2022/05/22 09:19:43;;;;;;;3.33;1.20;;;;;;;;;;5049698;28;20234;-62
2022/05/22 09:22:13;;;;;;;2.90;1.50;;;;;;;;;;5051448;28;20202;-62
2022/05/22 09:24:43;;;;;;;4.40;1.40;;;;;;;;;;5051388;28;20219;-62
2022/05/22 09:27:11;;;;;;;3.53;1.63;;;;;;;;;;5049529;28;20196;-61
2022/05/22 09:29:45;;;;;;;2.80;1.17;;;;;;;;;;5051445;28;20220;-62
2022/05/22 09:32:19;;;;;;;3.30;1.20;;;;;;;;;;5050918;28;20254;-63
2022/05/22 09:34:49;;;;;;;4.27;1.80;;;;;;;;;;5051630;28;20199;-63
2022/05/22 09:37:21;;;;;;;3.13;1.20;;;;;;;;;;5051567;28;20223;-61
2022/05/22 09:39:54;;;;;;;5.00;1.40;;;;;;;;;;5051381;28;20239;-60
2022/05/22 09:42:28;;;;;;;7.60;1.60;;;;;;;;;;5051642;28;20204;-62
2022/05/22 09:45:03;;;;;;;2.67;1.40;;;;;;;;;;5051564;28;20199;-62
2022/05/22 09:47:38;;;;;;;4.40;1.37;;;;;;;;;;5051356;28;20223;-62
2022/05/22 09:50:15;;;;;;;3.73;1.27;;;;;;;;;;5051300;28;20212;-62
2022/05/22 09:52:46;;;;;;;4.73;1.80;;;;;;;;;;5051422;28;20285;-60
2022/05/22 09:55:18;;;;;;;6.70;1.40;;;;;;;;;;5051659;28;20196;-62
2022/05/22 09:57:51;;;;;;;2.37;1.30;;;;;;;;;;5051495;28;20212;-62
2022/05/22 10:00:18;;;;;;;4.53;1.50;;;;;;;;;;5053631;28;20206;-61
2022/05/22 10:02:51;;;;;;;2.60;1.50;;;;;;;;;;5055061;28;20238;-61
2022/05/22 10:05:24;;;;;;;6.10;3.43;;;;;;;;;;5054946;28;20205;-62
2022/05/22 10:07:59;;;;;;;2.63;1.20;;;;;;;;;;5055135;28;20201;-61
2022/05/22 10:10:27;;;;;;;3.17;1.40;;;;;;;;;;5055005;28;20200;-64
2022/05/22 10:12:56;;;;;;;3.30;1.43;;;;;;;;;;5055020;28;20237;-64
2022/05/22 10:15:28;;;;;;;2.63;1.30;;;;;;;;;;5054491;28;20299;-61
2022/05/22 10:18:00;;;;;;;4.87;1.40;;;;;;;;;;5054723;28;20204;-61
2022/05/22 10:20:30;;;;;;;3.60;1.53;;;;;;;;;;5054461;28;20212;-61
2022/05/22 10:23:02;;;;;;;2.97;1.17;;;;;;;;;;5054808;28;20195;-61
2022/05/22 10:25:33;;;;;;;3.37;1.50;;;;;;;;;;5054439;28;20269;-61
2022/05/22 10:28:01;;;;;;;3.53;1.47;;;;;;;;;;5054422;28;20725;-60
2022/05/22 10:30:31;;;;;;;2.43;1.27;;;;;;;;;;5053446;28;20214;-61
2022/05/22 10:33:01;;;;;;;6.73;1.37;;;;;;;;;;5054192;28;20286;-61
2022/05/22 10:35:28;;;;;;;6.30;1.50;;;;;;;;;;5054217;28;20623;-61
2022/05/22 10:37:58;;;;;;;2.00;1.30;;;;;;;;;;5054130;28;20201;-60
2022/05/22 10:40:25;;;;;;;2.63;1.30;;;;;;;;;;5054078;28;20286;-60
2022/05/22 10:42:53;;;;;;;3.27;1.40;;;;;;;;;;5054353;28;20270;-60
2022/05/22 10:45:24;;;;;;;4.17;1.27;;;;;;;;;;5054031;28;20222;-61
2022/05/22 10:47:50;;;;;;;5.63;1.60;;;;;;;;;;5053704;28;20653;-61
2022/05/22 10:50:19;;;;;;;2.60;1.10;;;;;;;;;;5053873;28;20213;-61
2022/05/22 10:52:46;;;;;;;2.37;1.20;;;;;;;;;;5053998;28;20766;-61
2022/05/22 10:55:20;;;;;;;2.03;1.17;;;;;;;;;;5054188;28;20206;-61
2022/05/22 10:57:54;;;;;;;3.90;1.80;;;;;;;;;;5054071;28;20199;-62
2022/05/22 11:00:20;;;;;;;6.17;4.60;;;;;;;;;;5054005;28;20196;-62
2022/05/22 11:02:46;;;;;;;3.47;1.60;;;;;;;;;;5053558;28;20658;-62
2022/05/22 11:05:15;;;;;;;4.13;1.60;;;;;;;;;;5053866;28;20241;-61
2022/05/22 11:07:45;;;;;;;4.17;1.60;;;;;;;;;;5053718;28;20198;-61
2022/05/22 11:10:14;;;;;;;3.97;1.50;;;;;;;;;;5053476;28;20205;-60
2022/05/22 11:12:40;;;;;;;3.37;1.40;;;;;;;;;;5053307;28;20232;-62
2022/05/22 11:15:08;;;;;;;2.60;1.30;;;;;;;;;;5053605;28;20204;-61
2022/05/22 11:17:34;;;;;;;2.63;1.13;;;;;;;;;;5053314;28;20199;-61
2022/05/22 11:20:04;;;;;;;3.33;1.30;;;;;;;;;;5053692;28;20296;-62
2022/05/22 11:22:34;;;;;;;2.93;1.50;;;;;;;;;;5053484;28;20241;-62
2022/05/22 11:25:09;;;;;;;4.50;1.50;;;;;;;;;;5053522;28;20219;-61
2022/05/22 11:27:40;;;;;;;4.33;1.40;;;;;;;;;;5053028;28;20202;-61
2022/05/22 11:30:15;;;;;;;3.47;1.43;;;;;;;;;;5053616;28;20245;-62
2022/05/22 11:32:55;;;;;;;2.83;1.27;;;;;;;;;;5056810;28;20283;-59
2022/05/22 11:35:28;;;;;;;2.73;1.67;;;;;;;;;;5073285;28;20195;-58
2022/05/22 11:38:02;;;;;;;3.37;1.40;;;;;;;;;;5073219;28;20210;-58
2022/05/22 11:40:35;;;;;;;2.73;1.20;;;;;;;;;;5072742;28;20387;-57
2022/05/22 11:43:10;;;;;;;3.73;1.47;;;;;;;;;;5073331;28;20214;-58
2022/05/22 11:45:38;;;;;;;3.43;1.30;;;;;;;;;;5072774;28;20289;-58
2022/05/22 11:48:17;;;;;;;3.07;1.30;;;;;;;;;;5073031;28;20209;-58
2022/05/22 11:50:48;;;;;;;4.27;1.40;;;;;;;;;;5071272;28;20235;-57
2022/05/22 11:53:33;;;;;;;2.90;1.40;;;;;;;;;;5070488;28;20581;-57
2022/05/22 11:56:14;;;;;;;3.90;1.27;;;;;;;;;;5072543;28;20675;-57
2022/05/22 11:58:43;;;;;;;2.33;1.20;;;;;;;;;;5072433;28;20206;-58
2022/05/22 12:01:12;;;;;;;4.17;1.40;;;;;;;;;;5072709;28;20191;-57
2022/05/22 12:03:46;;;;;;;4.73;1.37;;;;;;;;;;5072636;28;20201;-57
2022/05/22 12:06:19;;;;;;;3.53;1.30;;;;;;;;;;5072421;28;20202;-58
2022/05/22 12:08:56;;;;;;;2.63;1.40;;;;;;;;;;5072340;28;20210;-58
2022/05/22 12:11:26;;;;;;;3.70;1.43;;;;;;;;;;5072464;28;20237;-57
2022/05/22 12:13:56;;;;;;;3.40;1.47;;;;;;;;;;5072316;28;20231;-57
2022/05/22 12:16:24;;;;;;;3.40;1.63;;;;;;;;;;5053481;28;20223;-56
2022/05/22 12:19:01;;;;;;;3.07;1.63;;;;;;;;;;5052335;28;20208;-56
2022/05/22 12:21:29;;;;;;;2.80;1.23;;;;;;;;;;5052022;28;20199;-57
2022/05/22 12:24:01;;;;;;;2.37;1.20;;;;;;;;;;5052029;28;20208;-56
2022/05/22 12:26:30;;;;;;;2.70;1.27;;;;;;;;;;5052144;28;20197;-57
2022/05/22 12:28:58;;;;;;;5.10;1.53;;;;;;;;;;5052363;28;20209;-57
2022/05/22 12:31:26;;;;;;;3.53;1.63;;;;;;;;;;5051882;28;20208;-57
2022/05/22 12:33:53;;;;;;;3.33;1.33;;;;;;;;;;5052206;28;20243;-57
2022/05/22 12:36:22;;;;;;;3.13;1.50;;;;;;;;;;5052265;28;20607;-61
2022/05/22 12:38:51;;;;;;;2.60;1.30;;;;;;;;;;5051835;28;20247;-57
2022/05/22 12:41:27;;;;;;;2.83;1.30;;;;;;;;;;5052010;28;20212;-57
2022/05/22 12:43:56;;;;;;;4.10;1.53;;;;;;;;;;5051479;28;20249;-57
2022/05/22 12:46:23;;;;;;;2.77;1.30;;;;;;;;;;5051515;28;20203;-57
2022/05/22 12:48:51;;;;;;;3.37;1.10;;;;;;;;;;5051504;28;20290;-57
2022/05/22 12:51:18;;;;;;;2.30;1.20;;;;;;;;;;5051542;28;20197;-58
2022/05/22 12:53:46;;;;;;;3.70;1.57;;;;;;;;;;5051863;28;20220;-58
2022/05/22 12:56:24;;;;;;;4.37;1.70;;;;;;;;;;5052139;28;20206;-56
2022/05/22 12:58:52;;;;;;;5.17;1.57;;;;;;;;;;5051687;28;20226;-59
2022/05/22 13:01:28;;;;;;;3.03;1.27;;;;;;;;;;5051949;28;20228;-57
2022/05/22 13:03:55;;;;;;;2.57;1.30;;;;;;;;;;5051876;28;20663;-57
2022/05/22 13:06:23;;;;;;;2.57;1.53;;;;;;;;;;5051987;28;20195;-57
2022/05/22 13:08:57;;;;;;;4.03;1.30;;;;;;;;;;5051754;28;20218;-57
2022/05/22 13:11:29;;;;;;;3.43;1.23;;;;;;;;;;5051734;28;20219;-57
2022/05/22 13:13:55;;;;;;;1.97;1.17;;;;;;;;;;5051616;28;20235;-57
2022/05/22 13:16:25;;;;;;;1.93;1.10;;;;;;;;;;5051625;28;20200;-57
2022/05/22 13:18:52;;;;;;;2.30;1.00;;;;;;;;;;5051410;28;20874;-57
2022/05/22 13:21:27;;;;;;;2.77;1.20;;;;;;;;;;5051715;28;20203;-57
2022/05/22 13:24:01;;;;;;;2.93;1.30;;;;;;;;;;5051560;28;20242;-56
2022/05/22 13:26:28;;;;;;;3.23;1.30;;;;;;;;;;5051650;28;20275;-57
2022/05/22 13:28:57;;;;;;;2.77;1.20;;;;;;;;;;5051648;28;20207;-57
2022/05/22 13:31:28;;;;;;;2.40;1.30;;;;;;;;;;5051338;28;20204;-58
2022/05/22 13:34:06;;;;;;;3.80;1.50;;;;;;;;;;5053504;28;20267;-57
2022/05/22 13:36:33;;;;;;;2.10;1.20;;;;;;;;;;5055367;28;20334;-57
2022/05/22 13:39:01;;;;;;;1.83;1.23;;;;;;;;;;5055124;28;20235;-57
2022/05/22 13:41:38;;;;;;;2.63;1.20;;;;;;;;;;5054906;28;20227;-57
2022/05/22 13:44:15;;;;;;;2.43;1.30;;;;;;;;;;5055151;28;20208;-57
2022/05/22 13:47:04;;;;;;;3.63;1.53;;;;;;;;;;5055026;28;20204;-60
2022/05/22 13:49:44;;;;;;;4.33;1.27;;;;;;;;;;5054923;28;20671;-61
2022/05/22 13:52:34;;;;;;;3.27;1.37;;;;;;;;;;5062698;28;20207;-61
2022/05/22 13:55:05;;;;;;;1.93;1.00;;;;;;;;;;5057097;28;20200;-60
2022/05/22 13:57:34;;;;;;;3.57;1.30;;;;;;;;;;5054775;28;20231;-60
2022/05/22 14:00:01;;;;;;;4.10;1.23;;;;;;;;;;5053660;28;20196;-59
2022/05/22 14:02:29;;;;;;;1.77;1.07;;;;;;;;;;5054520;28;20247;-60
2022/05/22 14:04:57;;;;;;;1.83;1.10;;;;;;;;;;5054441;28;20268;-61
2022/05/22 14:07:28;;;;;;;1.80;0.90;;;;;;;;;;5054559;28;20204;-60
2022/05/22 14:09:54;;;;;;;2.70;1.30;;;;;;;;;;5054554;28;20193;-60
2022/05/22 14:12:25;;;;;;;1.80;1.10;;;;;;;;;;5054460;28;20195;-61
2022/05/22 14:14:51;;;;;;;2.73;1.17;;;;;;;;;;5053019;28;20226;-61
2022/05/22 14:17:27;;;;;;;3.27;1.57;;;;;;;;;;5054675;28;20197;-59
2022/05/22 14:20:03;;;;;;;3.83;1.50;;;;;;;;;;5054464;28;20200;-60
2022/05/22 14:22:30;;;;;;;3.57;1.40;;;;;;;;;;5054525;28;20191;-59
2022/05/22 14:24:58;;;;;;;2.60;1.30;;;;;;;;;;5054343;28;20798;-59
2022/05/22 14:27:28;;;;;;;4.73;1.50;;;;;;;;;;5054108;28;20220;-59
2022/05/22 14:30:05;;;;;;;2.10;1.30;;;;;;;;;;5054396;28;20212;-59
2022/05/22 14:32:31;;;;;;;2.67;1.50;;;;;;;;;;5054257;28;20227;-60
2022/05/22 14:34:57;;;;;;;3.60;1.50;;;;;;;;;;5054255;28;20228;-61
2022/05/22 14:37:23;;;;;;;2.37;1.30;;;;;;;;;;5054259;28;20196;-60
2022/05/22 14:39:53;;;;;;;2.80;1.03;;;;;;;;;;5053749;28;20687;-60
2022/05/22 14:42:20;;;;;;;2.47;1.40;;;;;;;;;;5054053;28;20209;-60
2022/05/22 14:44:48;;;;;;;2.67;1.10;;;;;;;;;;5053391;28;20207;-62
2022/05/22 14:47:19;;;;;;;3.10;1.23;;;;;;;;;;5053896;28;20200;-60
2022/05/22 14:49:47;;;;;;;2.90;1.30;;;;;;;;;;5053762;28;20607;-61
2022/05/22 14:52:16;;;;;;;2.27;1.30;;;;;;;;;;5053928;28;20751;-61
2022/05/22 14:54:47;;;;;;;4.50;1.10;;;;;;;;;;5053772;28;20250;-59
2022/05/22 14:57:19;;;;;;;3.67;1.40;;;;;;;;;;5053981;28;20678;-61
2022/05/22 14:59:49;;;;;;;5.27;1.20;;;;;;;;;;5054038;28;20202;-61
2022/05/22 15:02:17;;;;;;;2.77;1.10;;;;;;;;;;5053988;28;20203;-60
2022/05/22 15:04:43;;;;;;;2.70;1.37;;;;;;;;;;5053223;28;20204;-60
2022/05/22 15:07:18;;;;;;;2.83;1.40;;;;;;;;;;5053584;28;20206;-60
2022/05/22 15:09:52;;;;;;;2.13;1.40;;;;;;;;;;5053585;28;20286;-61
2022/05/22 15:12:23;;;;;;;4.20;1.40;;;;;;;;;;5053392;28;20647;-61
2022/05/22 15:14:55;;;;;;;2.00;1.07;;;;;;;;;;5055594;28;20212;-60
2022/05/22 15:17:22;;;;;;;1.33;1.10;;;;;;;;;;5073245;28;20252;-60
2022/05/22 15:19:54;;;;;;;4.10;1.50;;;;;;;;;;5073087;28;20206;-61
2022/05/22 15:25:29;;;;;;;2.73;1.50;;;;;;;;;;5073220;28;20299;-60
2022/05/22 15:27:58;;;;;;;3.10;1.27;;;;;;;;;;5073005;28;20675;-62
2022/05/22 15:30:25;;;;;;;2.23;1.27;;;;;;;;;;5073033;28;20262;-60